sensor_id;sensor_type;location;lat;lon;timestamp;temperature;humidity
22337;DHT22;14992;50.844;4.418;2022-07-23T00:01:34;19.20;99.90
22337;DHT22;14992;50.844;4.418;2022-07-23T00:04:02;19.10;99.90
22337;DHT22;14992;50.844;4.418;2022-07-23T00:06:30;19.00;99.90
22337;DHT22;14992;50.844;4.418;2022-07-23T00:08:59;19.00;99.90
22337;DHT22;14992;50.844;4.418;2022-07-23T00:11:28;19.10;99.90
22337;DHT22;14992;50.844;4.418;2022-07-23T00:13:56;19.10;99.90
22337;DHT22;14992;50.844;4.418;2022-07-23T00:16:27;19.10;99.90
22337;DHT22;14992;50.844;4.418;2022-07-23T00:18:56;19.20;99.90
22337;DHT22;14992;50.844;4.418;2022-07-23T00:21:25;19.10;99.90
22337;DHT22;14992;50.844;4.418;2022-07-23T00:23:53;19.00;99.90
22337;DHT22;14992;50.844;4.418;2022-07-23T00:26:22;19.00;99.90
22337;DHT22;14992;50.844;4.418;2022-07-23T00:28:50;19.00;99.90
22337;DHT22;14992;50.844;4.418;2022-07-23T00:31:19;19.00;99.90
22337;DHT22;14992;50.844;4.418;2022-07-23T00:33:49;19.10;99.90
22337;DHT22;14992;50.844;4.418;2022-07-23T00:36:17;19.10;99.90
22337;DHT22;14992;50.844;4.418;2022-07-23T00:38:46;18.90;99.90
22337;DHT22;14992;50.844;4.418;2022-07-23T00:41:14;19.00;99.90
22337;DHT22;14992;50.844;4.418;2022-07-23T00:43:42;19.00;99.90
22337;DHT22;14992;50.844;4.418;2022-07-23T00:46:11;18.90;99.90
22337;DHT22;14992;50.844;4.418;2022-07-23T00:48:39;18.90;99.90
22337;DHT22;14992;50.844;4.418;2022-07-23T00:51:09;18.80;99.90
22337;DHT22;14992;50.844;4.418;2022-07-23T00:53:37;18.80;99.90
22337;DHT22;14992;50.844;4.418;2022-07-23T00:56:07;18.70;99.90
22337;DHT22;14992;50.844;4.418;2022-07-23T00:58:36;18.50;99.90
22337;DHT22;14992;50.844;4.418;2022-07-23T01:01:06;18.60;99.90
22337;DHT22;14992;50.844;4.418;2022-07-23T01:03:36;18.80;99.90
22337;DHT22;14992;50.844;4.418;2022-07-23T01:06:05;18.80;99.90
22337;DHT22;14992;50.844;4.418;2022-07-23T01:08:35;18.60;99.90
22337;DHT22;14992;50.844;4.418;2022-07-23T01:11:03;18.70;99.90
22337;DHT22;14992;50.844;4.418;2022-07-23T01:13:32;18.70;99.90
22337;DHT22;14992;50.844;4.418;2022-07-23T01:16:01;18.80;99.90
22337;DHT22;14992;50.844;4.418;2022-07-23T01:18:29;18.80;99.90
22337;DHT22;14992;50.844;4.418;2022-07-23T01:20:58;18.70;99.90
22337;DHT22;14992;50.844;4.418;2022-07-23T01:23:28;18.80;99.90
22337;DHT22;14992;50.844;4.418;2022-07-23T01:25:58;18.70;99.90
22337;DHT22;14992;50.844;4.418;2022-07-23T01:28:27;18.70;99.90
22337;DHT22;14992;50.844;4.418;2022-07-23T01:30:57;18.70;99.90
22337;DHT22;14992;50.844;4.418;2022-07-23T01:33:30;18.50;99.90
22337;DHT22;14992;50.844;4.418;2022-07-23T01:35:58;18.50;99.90
22337;DHT22;14992;50.844;4.418;2022-07-23T01:38:28;18.40;99.90
22337;DHT22;14992;50.844;4.418;2022-07-23T01:40:57;18.50;99.90
22337;DHT22;14992;50.844;4.418;2022-07-23T01:43:30;18.50;99.90
22337;DHT22;14992;50.844;4.418;2022-07-23T01:45:59;18.40;99.90
22337;DHT22;14992;50.844;4.418;2022-07-23T01:48:32;18.30;99.90
22337;DHT22;14992;50.844;4.418;2022-07-23T01:51:16;18.40;99.90
22337;DHT22;14992;50.844;4.418;2022-07-23T01:53:54;18.40;99.90
22337;DHT22;14992;50.844;4.418;2022-07-23T01:56:22;18.30;99.90
22337;DHT22;14992;50.844;4.418;2022-07-23T01:58:51;18.40;99.90
22337;DHT22;14992;50.844;4.418;2022-07-23T02:01:20;18.40;99.90
22337;DHT22;14992;50.844;4.418;2022-07-23T02:03:49;18.40;99.90
22337;DHT22;14992;50.844;4.418;2022-07-23T02:06:17;18.30;99.90
22337;DHT22;14992;50.844;4.418;2022-07-23T02:08:45;18.10;99.90
22337;DHT22;14992;50.844;4.418;2022-07-23T02:11:15;17.80;99.90
22337;DHT22;14992;50.844;4.418;2022-07-23T02:13:43;17.90;99.90
22337;DHT22;14992;50.844;4.418;2022-07-23T02:16:12;18.10;99.90
22337;DHT22;14992;50.844;4.418;2022-07-23T02:18:40;18.40;99.90
22337;DHT22;14992;50.844;4.418;2022-07-23T02:21:10;18.50;99.90
22337;DHT22;14992;50.844;4.418;2022-07-23T02:23:39;18.50;99.90
22337;DHT22;14992;50.844;4.418;2022-07-23T02:26:07;18.40;99.90
22337;DHT22;14992;50.844;4.418;2022-07-23T02:28:37;18.40;99.90
22337;DHT22;14992;50.844;4.418;2022-07-23T02:31:06;18.50;99.90
22337;DHT22;14992;50.844;4.418;2022-07-23T02:33:35;18.50;99.90
22337;DHT22;14992;50.844;4.418;2022-07-23T02:36:03;18.40;99.90
22337;DHT22;14992;50.844;4.418;2022-07-23T02:38:32;18.50;99.90
22337;DHT22;14992;50.844;4.418;2022-07-23T02:41:01;18.50;99.90
22337;DHT22;14992;50.844;4.418;2022-07-23T02:43:29;18.50;99.90
22337;DHT22;14992;50.844;4.418;2022-07-23T02:45:59;18.50;99.90
22337;DHT22;14992;50.844;4.418;2022-07-23T02:48:28;18.40;99.90
22337;DHT22;14992;50.844;4.418;2022-07-23T02:50:56;18.50;99.90
22337;DHT22;14992;50.844;4.418;2022-07-23T02:53:30;18.40;99.90
22337;DHT22;14992;50.844;4.418;2022-07-23T02:55:58;18.30;99.90
22337;DHT22;14992;50.844;4.418;2022-07-23T02:58:27;18.20;99.90
22337;DHT22;14992;50.844;4.418;2022-07-23T03:00:55;18.10;99.90
22337;DHT22;14992;50.844;4.418;2022-07-23T03:03:26;17.90;99.90
22337;DHT22;14992;50.844;4.418;2022-07-23T03:05:56;17.80;99.90
22337;DHT22;14992;50.844;4.418;2022-07-23T03:08:25;17.80;99.90
22337;DHT22;14992;50.844;4.418;2022-07-23T03:10:53;17.90;99.90
22337;DHT22;14992;50.844;4.418;2022-07-23T03:13:21;17.50;99.90
22337;DHT22;14992;50.844;4.418;2022-07-23T03:15:51;17.90;99.90
22337;DHT22;14992;50.844;4.418;2022-07-23T03:18:20;18.20;99.90
22337;DHT22;14992;50.844;4.418;2022-07-23T03:20:49;18.30;99.90
22337;DHT22;14992;50.844;4.418;2022-07-23T03:23:18;18.20;99.90
22337;DHT22;14992;50.844;4.418;2022-07-23T03:25:46;18.20;99.90
22337;DHT22;14992;50.844;4.418;2022-07-23T03:28:21;18.10;99.90
22337;DHT22;14992;50.844;4.418;2022-07-23T03:30:50;18.30;99.90
22337;DHT22;14992;50.844;4.418;2022-07-23T03:33:20;18.40;99.90
22337;DHT22;14992;50.844;4.418;2022-07-23T03:35:50;18.30;99.90
22337;DHT22;14992;50.844;4.418;2022-07-23T03:38:25;18.20;99.90
22337;DHT22;14992;50.844;4.418;2022-07-23T03:40:54;18.30;99.90
22337;DHT22;14992;50.844;4.418;2022-07-23T03:43:22;18.10;99.90
22337;DHT22;14992;50.844;4.418;2022-07-23T03:45:51;18.00;99.90
22337;DHT22;14992;50.844;4.418;2022-07-23T03:48:20;18.10;99.90
22337;DHT22;14992;50.844;4.418;2022-07-23T03:50:49;17.90;99.90
22337;DHT22;14992;50.844;4.418;2022-07-23T03:53:18;17.70;99.90
22337;DHT22;14992;50.844;4.418;2022-07-23T03:55:46;17.90;99.90
22337;DHT22;14992;50.844;4.418;2022-07-23T03:58:14;18.10;99.90
22337;DHT22;14992;50.844;4.418;2022-07-23T04:00:43;18.30;99.90
22337;DHT22;14992;50.844;4.418;2022-07-23T04:03:12;18.20;99.90
22337;DHT22;14992;50.844;4.418;2022-07-23T04:05:41;18.20;99.90
22337;DHT22;14992;50.844;4.418;2022-07-23T04:08:14;18.30;99.90
22337;DHT22;14992;50.844;4.418;2022-07-23T04:10:47;18.20;99.90
22337;DHT22;14992;50.844;4.418;2022-07-23T04:13:16;18.20;99.90
22337;DHT22;14992;50.844;4.418;2022-07-23T04:15:44;18.10;99.90
22337;DHT22;14992;50.844;4.418;2022-07-23T04:18:12;18.10;99.90
22337;DHT22;14992;50.844;4.418;2022-07-23T04:20:48;18.20;99.90
22337;DHT22;14992;50.844;4.418;2022-07-23T04:23:17;18.10;99.90
22337;DHT22;14992;50.844;4.418;2022-07-23T04:25:46;18.20;99.90
22337;DHT22;14992;50.844;4.418;2022-07-23T04:28:15;18.30;99.90
22337;DHT22;14992;50.844;4.418;2022-07-23T04:30:44;18.30;99.90
22337;DHT22;14992;50.844;4.418;2022-07-23T04:33:15;18.30;99.90
22337;DHT22;14992;50.844;4.418;2022-07-23T04:35:45;18.40;99.90
22337;DHT22;14992;50.844;4.418;2022-07-23T04:38:19;18.50;99.90
22337;DHT22;14992;50.844;4.418;2022-07-23T04:40:51;18.50;99.90
22337;DHT22;14992;50.844;4.418;2022-07-23T04:43:19;18.50;99.90
22337;DHT22;14992;50.844;4.418;2022-07-23T04:45:49;18.50;99.90
22337;DHT22;14992;50.844;4.418;2022-07-23T04:48:18;18.40;99.90
22337;DHT22;14992;50.844;4.418;2022-07-23T04:50:52;18.50;99.90
22337;DHT22;14992;50.844;4.418;2022-07-23T04:53:28;18.60;99.90
22337;DHT22;14992;50.844;4.418;2022-07-23T04:56:00;18.40;99.90
22337;DHT22;14992;50.844;4.418;2022-07-23T04:58:30;18.50;99.90
22337;DHT22;14992;50.844;4.418;2022-07-23T05:00:59;18.40;99.90
22337;DHT22;14992;50.844;4.418;2022-07-23T05:03:30;18.50;99.90
22337;DHT22;14992;50.844;4.418;2022-07-23T05:05:59;18.70;99.90
22337;DHT22;14992;50.844;4.418;2022-07-23T05:08:29;18.70;99.90
22337;DHT22;14992;50.844;4.418;2022-07-23T05:10:58;18.70;99.90
22337;DHT22;14992;50.844;4.418;2022-07-23T05:13:28;18.70;99.90
22337;DHT22;14992;50.844;4.418;2022-07-23T05:15:58;18.70;99.90
22337;DHT22;14992;50.844;4.418;2022-07-23T05:18:26;18.60;99.90
22337;DHT22;14992;50.844;4.418;2022-07-23T05:20:55;18.70;99.90
22337;DHT22;14992;50.844;4.418;2022-07-23T05:23:23;18.80;99.90
22337;DHT22;14992;50.844;4.418;2022-07-23T05:25:53;18.90;99.90
22337;DHT22;14992;50.844;4.418;2022-07-23T05:28:22;18.80;99.90
22337;DHT22;14992;50.844;4.418;2022-07-23T05:30:52;19.00;99.90
22337;DHT22;14992;50.844;4.418;2022-07-23T05:33:21;19.10;99.90
22337;DHT22;14992;50.844;4.418;2022-07-23T05:35:50;19.10;99.90
22337;DHT22;14992;50.844;4.418;2022-07-23T05:38:26;19.50;99.90
22337;DHT22;14992;50.844;4.418;2022-07-23T05:40:59;19.40;99.90
22337;DHT22;14992;50.844;4.418;2022-07-23T05:43:29;19.60;99.90
22337;DHT22;14992;50.844;4.418;2022-07-23T05:46:00;19.60;99.90
22337;DHT22;14992;50.844;4.418;2022-07-23T05:48:29;19.30;99.90
22337;DHT22;14992;50.844;4.418;2022-07-23T05:51:02;19.20;99.90
22337;DHT22;14992;50.844;4.418;2022-07-23T05:53:34;19.30;99.90
22337;DHT22;14992;50.844;4.418;2022-07-23T05:56:16;19.30;99.90
22337;DHT22;14992;50.844;4.418;2022-07-23T05:58:44;19.50;99.90
22337;DHT22;14992;50.844;4.418;2022-07-23T06:01:16;19.40;99.90
22337;DHT22;14992;50.844;4.418;2022-07-23T06:03:59;19.40;99.90
22337;DHT22;14992;50.844;4.418;2022-07-23T06:06:33;19.40;99.90
22337;DHT22;14992;50.844;4.418;2022-07-23T06:09:03;19.60;99.90
22337;DHT22;14992;50.844;4.418;2022-07-23T06:11:33;19.70;99.90
22337;DHT22;14992;50.844;4.418;2022-07-23T06:14:02;19.50;99.90
22337;DHT22;14992;50.844;4.418;2022-07-23T06:16:50;19.40;99.90
22337;DHT22;14992;50.844;4.418;2022-07-23T06:19:19;19.60;99.90
22337;DHT22;14992;50.844;4.418;2022-07-23T06:21:47;19.60;99.90
22337;DHT22;14992;50.844;4.418;2022-07-23T06:24:16;19.50;99.90
22337;DHT22;14992;50.844;4.418;2022-07-23T06:26:47;19.30;99.90
22337;DHT22;14992;50.844;4.418;2022-07-23T06:29:15;19.30;99.90
22337;DHT22;14992;50.844;4.418;2022-07-23T06:31:44;19.50;99.90
22337;DHT22;14992;50.844;4.418;2022-07-23T06:34:14;19.70;99.90
22337;DHT22;14992;50.844;4.418;2022-07-23T06:36:42;19.90;99.90
22337;DHT22;14992;50.844;4.418;2022-07-23T06:39:12;19.80;99.90
22337;DHT22;14992;50.844;4.418;2022-07-23T06:41:46;19.80;99.90
22337;DHT22;14992;50.844;4.418;2022-07-23T06:44:18;19.80;99.90
22337;DHT22;14992;50.844;4.418;2022-07-23T06:46:48;19.90;99.90
22337;DHT22;14992;50.844;4.418;2022-07-23T06:49:16;19.90;99.90
22337;DHT22;14992;50.844;4.418;2022-07-23T06:51:45;19.70;99.90
22337;DHT22;14992;50.844;4.418;2022-07-23T06:54:13;19.70;99.90
22337;DHT22;14992;50.844;4.418;2022-07-23T06:56:41;19.60;99.90
22337;DHT22;14992;50.844;4.418;2022-07-23T06:59:12;19.70;99.90
22337;DHT22;14992;50.844;4.418;2022-07-23T07:01:40;19.70;99.90
22337;DHT22;14992;50.844;4.418;2022-07-23T07:04:09;19.70;99.90
22337;DHT22;14992;50.844;4.418;2022-07-23T07:06:37;19.90;99.90
22337;DHT22;14992;50.844;4.418;2022-07-23T07:09:06;20.10;99.90
22337;DHT22;14992;50.844;4.418;2022-07-23T07:11:34;19.90;99.90
22337;DHT22;14992;50.844;4.418;2022-07-23T07:14:02;20.00;99.90
22337;DHT22;14992;50.844;4.418;2022-07-23T07:16:33;20.10;99.90
22337;DHT22;14992;50.844;4.418;2022-07-23T07:19:01;20.10;99.90
22337;DHT22;14992;50.844;4.418;2022-07-23T07:21:30;20.20;99.90
22337;DHT22;14992;50.844;4.418;2022-07-23T07:23:59;20.40;99.90
22337;DHT22;14992;50.844;4.418;2022-07-23T07:26:27;20.60;99.90
22337;DHT22;14992;50.844;4.418;2022-07-23T07:28:56;20.70;99.90
22337;DHT22;14992;50.844;4.418;2022-07-23T07:31:25;20.80;99.90
22337;DHT22;14992;50.844;4.418;2022-07-23T07:33:56;20.60;99.90
22337;DHT22;14992;50.844;4.418;2022-07-23T07:36:25;20.50;99.90
22337;DHT22;14992;50.844;4.418;2022-07-23T07:38:53;20.40;99.90
22337;DHT22;14992;50.844;4.418;2022-07-23T07:41:21;20.40;99.90
22337;DHT22;14992;50.844;4.418;2022-07-23T07:43:50;20.50;99.90
22337;DHT22;14992;50.844;4.418;2022-07-23T07:46:19;20.50;99.90
22337;DHT22;14992;50.844;4.418;2022-07-23T07:48:48;20.50;99.90
22337;DHT22;14992;50.844;4.418;2022-07-23T07:51:25;20.60;99.90
22337;DHT22;14992;50.844;4.418;2022-07-23T07:53:54;20.90;99.90
22337;DHT22;14992;50.844;4.418;2022-07-23T07:56:22;20.70;99.90
22337;DHT22;14992;50.844;4.418;2022-07-23T07:58:51;21.00;99.90
22337;DHT22;14992;50.844;4.418;2022-07-23T08:01:19;20.90;99.90
22337;DHT22;14992;50.844;4.418;2022-07-23T08:03:47;21.00;99.90
22337;DHT22;14992;50.844;4.418;2022-07-23T08:06:16;21.10;99.90
22337;DHT22;14992;50.844;4.418;2022-07-23T08:08:48;21.40;99.90
22337;DHT22;14992;50.844;4.418;2022-07-23T08:11:17;20.90;99.90
22337;DHT22;14992;50.844;4.418;2022-07-23T08:13:45;21.20;99.90
22337;DHT22;14992;50.844;4.418;2022-07-23T08:16:20;21.30;99.90
22337;DHT22;14992;50.844;4.418;2022-07-23T08:18:49;21.60;99.90
22337;DHT22;14992;50.844;4.418;2022-07-23T08:21:18;21.60;99.90
22337;DHT22;14992;50.844;4.418;2022-07-23T08:23:47;21.80;99.90
22337;DHT22;14992;50.844;4.418;2022-07-23T08:26:16;21.70;99.90
22337;DHT22;14992;50.844;4.418;2022-07-23T08:28:44;21.80;99.90
22337;DHT22;14992;50.844;4.418;2022-07-23T08:31:12;21.60;99.90
22337;DHT22;14992;50.844;4.418;2022-07-23T08:33:43;21.70;99.90
22337;DHT22;14992;50.844;4.418;2022-07-23T08:36:12;21.80;99.90
22337;DHT22;14992;50.844;4.418;2022-07-23T08:38:40;21.80;99.90
22337;DHT22;14992;50.844;4.418;2022-07-23T08:41:12;22.00;99.90
22337;DHT22;14992;50.844;4.418;2022-07-23T08:43:40;21.80;99.90
22337;DHT22;14992;50.844;4.418;2022-07-23T08:46:12;21.50;99.90
22337;DHT22;14992;50.844;4.418;2022-07-23T08:48:41;21.50;99.90
22337;DHT22;14992;50.844;4.418;2022-07-23T08:51:10;21.60;99.90
22337;DHT22;14992;50.844;4.418;2022-07-23T08:53:39;21.90;99.90
22337;DHT22;14992;50.844;4.418;2022-07-23T08:56:08;22.00;99.90
22337;DHT22;14992;50.844;4.418;2022-07-23T08:58:38;22.00;99.90
22337;DHT22;14992;50.844;4.418;2022-07-23T09:01:07;22.20;99.90
22337;DHT22;14992;50.844;4.418;2022-07-23T09:03:36;22.20;99.90
22337;DHT22;14992;50.844;4.418;2022-07-23T09:06:06;22.20;99.90
22337;DHT22;14992;50.844;4.418;2022-07-23T09:08:36;22.20;99.90
22337;DHT22;14992;50.844;4.418;2022-07-23T09:11:07;22.40;99.90
22337;DHT22;14992;50.844;4.418;2022-07-23T09:13:39;22.70;99.90
22337;DHT22;14992;50.844;4.418;2022-07-23T09:16:10;22.60;99.90
22337;DHT22;14992;50.844;4.418;2022-07-23T09:18:43;22.40;99.90
22337;DHT22;14992;50.844;4.418;2022-07-23T09:21:15;22.70;99.90
22337;DHT22;14992;50.844;4.418;2022-07-23T09:23:45;22.80;99.90
22337;DHT22;14992;50.844;4.418;2022-07-23T09:26:33;22.80;99.90
22337;DHT22;14992;50.844;4.418;2022-07-23T09:29:06;22.90;99.90
22337;DHT22;14992;50.844;4.418;2022-07-23T09:31:49;22.90;99.90
22337;DHT22;14992;50.844;4.418;2022-07-23T09:34:21;22.70;99.90
22337;DHT22;14992;50.844;4.418;2022-07-23T09:36:52;22.90;99.90
22337;DHT22;14992;50.844;4.418;2022-07-23T09:39:29;22.90;99.90
22337;DHT22;14992;50.844;4.418;2022-07-23T09:41:58;23.00;99.90
22337;DHT22;14992;50.844;4.418;2022-07-23T09:44:42;22.90;99.90
22337;DHT22;14992;50.844;4.418;2022-07-23T09:47:11;23.00;99.90
22337;DHT22;14992;50.844;4.418;2022-07-23T09:49:39;23.10;99.90
22337;DHT22;14992;50.844;4.418;2022-07-23T09:52:08;23.20;99.90
22337;DHT22;14992;50.844;4.418;2022-07-23T09:54:37;22.80;99.90
22337;DHT22;14992;50.844;4.418;2022-07-23T09:57:09;22.90;99.90
22337;DHT22;14992;50.844;4.418;2022-07-23T09:59:44;23.10;99.90
22337;DHT22;14992;50.844;4.418;2022-07-23T10:02:13;23.10;99.90
22337;DHT22;14992;50.844;4.418;2022-07-23T10:05:03;23.10;99.90
22337;DHT22;14992;50.844;4.418;2022-07-23T10:07:54;23.20;99.90
22337;DHT22;14992;50.844;4.418;2022-07-23T10:10:50;23.40;99.90
22337;DHT22;14992;50.844;4.418;2022-07-23T10:13:45;23.30;99.90
22337;DHT22;14992;50.844;4.418;2022-07-23T10:16:53;23.20;99.90
22337;DHT22;14992;50.844;4.418;2022-07-23T10:19:21;23.60;99.90
22337;DHT22;14992;50.844;4.418;2022-07-23T10:21:53;24.10;99.90
22337;DHT22;14992;50.844;4.418;2022-07-23T10:24:30;24.20;99.90
22337;DHT22;14992;50.844;4.418;2022-07-23T10:27:12;24.10;99.90
22337;DHT22;14992;50.844;4.418;2022-07-23T10:29:47;23.90;99.90
22337;DHT22;14992;50.844;4.418;2022-07-23T10:32:30;23.90;99.90
22337;DHT22;14992;50.844;4.418;2022-07-23T10:35:09;23.80;99.90
22337;DHT22;14992;50.844;4.418;2022-07-23T10:37:39;23.70;99.90
22337;DHT22;14992;50.844;4.418;2022-07-23T10:40:12;24.20;99.90
22337;DHT22;14992;50.844;4.418;2022-07-23T10:42:41;24.10;99.90
22337;DHT22;14992;50.844;4.418;2022-07-23T10:45:30;24.10;99.90
22337;DHT22;14992;50.844;4.418;2022-07-23T10:48:14;24.20;99.90
22337;DHT22;14992;50.844;4.418;2022-07-23T10:53:28;24.30;99.90
22337;DHT22;14992;50.844;4.418;2022-07-23T10:56:17;24.50;99.90
22337;DHT22;14992;50.844;4.418;2022-07-23T10:59:05;24.60;99.90
22337;DHT22;14992;50.844;4.418;2022-07-23T11:01:35;24.60;99.90
22337;DHT22;14992;50.844;4.418;2022-07-23T11:04:05;24.50;99.90
22337;DHT22;14992;50.844;4.418;2022-07-23T11:07:06;24.50;99.90
22337;DHT22;14992;50.844;4.418;2022-07-23T11:09:40;24.60;99.90
22337;DHT22;14992;50.844;4.418;2022-07-23T11:12:31;24.70;99.90
22337;DHT22;14992;50.844;4.418;2022-07-23T11:15:01;25.00;99.90
22337;DHT22;14992;50.844;4.418;2022-07-23T11:17:31;25.00;99.90
22337;DHT22;14992;50.844;4.418;2022-07-23T11:20:21;25.10;99.90
22337;DHT22;14992;50.844;4.418;2022-07-23T11:22:52;25.00;99.90
22337;DHT22;14992;50.844;4.418;2022-07-23T11:25:35;24.70;99.90
22337;DHT22;14992;50.844;4.418;2022-07-23T11:28:15;24.80;99.90
22337;DHT22;14992;50.844;4.418;2022-07-23T11:30:44;24.90;99.90
22337;DHT22;14992;50.844;4.418;2022-07-23T11:33:20;25.00;99.90
22337;DHT22;14992;50.844;4.418;2022-07-23T11:36:02;25.10;99.90
22337;DHT22;14992;50.844;4.418;2022-07-23T11:38:31;25.30;99.90
22337;DHT22;14992;50.844;4.418;2022-07-23T11:41:00;25.30;99.90
22337;DHT22;14992;50.844;4.418;2022-07-23T11:43:28;25.50;99.90
22337;DHT22;14992;50.844;4.418;2022-07-23T11:45:59;25.20;99.90
22337;DHT22;14992;50.844;4.418;2022-07-23T11:48:29;25.00;99.90
22337;DHT22;14992;50.844;4.418;2022-07-23T11:51:04;25.10;99.90
22337;DHT22;14992;50.844;4.418;2022-07-23T11:53:33;25.10;99.90
22337;DHT22;14992;50.844;4.418;2022-07-23T11:56:06;24.80;99.90
22337;DHT22;14992;50.844;4.418;2022-07-23T11:58:34;25.00;99.90
22337;DHT22;14992;50.844;4.418;2022-07-23T12:01:03;25.20;99.90
22337;DHT22;14992;50.844;4.418;2022-07-23T12:03:31;25.30;99.90
22337;DHT22;14992;50.844;4.418;2022-07-23T12:06:00;25.20;99.90
22337;DHT22;14992;50.844;4.418;2022-07-23T12:08:30;25.10;99.90
22337;DHT22;14992;50.844;4.418;2022-07-23T12:10:58;25.20;99.90
22337;DHT22;14992;50.844;4.418;2022-07-23T12:13:26;25.30;99.90
22337;DHT22;14992;50.844;4.418;2022-07-23T12:15:57;25.20;99.90
22337;DHT22;14992;50.844;4.418;2022-07-23T12:18:27;25.50;99.90
22337;DHT22;14992;50.844;4.418;2022-07-23T12:20:57;25.40;99.90
22337;DHT22;14992;50.844;4.418;2022-07-23T12:23:32;25.60;99.90
22337;DHT22;14992;50.844;4.418;2022-07-23T12:26:02;25.80;99.90
22337;DHT22;14992;50.844;4.418;2022-07-23T12:28:32;25.90;99.90
22337;DHT22;14992;50.844;4.418;2022-07-23T12:31:02;26.00;99.90
22337;DHT22;14992;50.844;4.418;2022-07-23T12:33:32;26.30;99.90
22337;DHT22;14992;50.844;4.418;2022-07-23T12:36:01;26.00;99.90
22337;DHT22;14992;50.844;4.418;2022-07-23T12:38:40;26.20;99.90
22337;DHT22;14992;50.844;4.418;2022-07-23T12:41:09;26.60;99.90
22337;DHT22;14992;50.844;4.418;2022-07-23T12:43:39;26.60;99.90
22337;DHT22;14992;50.844;4.418;2022-07-23T12:46:10;26.80;99.90
22337;DHT22;14992;50.844;4.418;2022-07-23T12:48:49;26.60;99.90
22337;DHT22;14992;50.844;4.418;2022-07-23T12:51:21;26.90;99.90
22337;DHT22;14992;50.844;4.418;2022-07-23T12:53:56;27.40;99.80
22337;DHT22;14992;50.844;4.418;2022-07-23T12:56:27;27.30;99.10
22337;DHT22;14992;50.844;4.418;2022-07-23T12:58:57;27.40;98.90
22337;DHT22;14992;50.844;4.418;2022-07-23T13:01:30;27.20;99.10
22337;DHT22;14992;50.844;4.418;2022-07-23T13:04:02;27.00;99.20
22337;DHT22;14992;50.844;4.418;2022-07-23T13:06:42;26.80;99.30
22337;DHT22;14992;50.844;4.418;2022-07-23T13:09:15;26.90;99.10
22337;DHT22;14992;50.844;4.418;2022-07-23T13:11:45;27.00;99.40
22337;DHT22;14992;50.844;4.418;2022-07-23T13:14:15;27.20;98.50
22337;DHT22;14992;50.844;4.418;2022-07-23T13:16:48;27.20;98.60
22337;DHT22;14992;50.844;4.418;2022-07-23T13:19:17;27.20;98.20
22337;DHT22;14992;50.844;4.418;2022-07-23T13:21:47;26.90;99.70
22337;DHT22;14992;50.844;4.418;2022-07-23T13:24:16;27.00;99.50
22337;DHT22;14992;50.844;4.418;2022-07-23T13:26:46;27.10;98.30
22337;DHT22;14992;50.844;4.418;2022-07-23T13:29:17;27.60;97.20
22337;DHT22;14992;50.844;4.418;2022-07-23T13:31:46;27.60;97.30
22337;DHT22;14992;50.844;4.418;2022-07-23T13:34:17;27.70;97.20
22337;DHT22;14992;50.844;4.418;2022-07-23T13:36:46;27.60;98.00
22337;DHT22;14992;50.844;4.418;2022-07-23T13:39:16;27.60;96.90
22337;DHT22;14992;50.844;4.418;2022-07-23T13:41:44;27.50;96.40
22337;DHT22;14992;50.844;4.418;2022-07-23T13:44:17;27.10;97.20
22337;DHT22;14992;50.844;4.418;2022-07-23T13:46:49;27.10;97.50
22337;DHT22;14992;50.844;4.418;2022-07-23T13:49:17;27.00;97.70
22337;DHT22;14992;50.844;4.418;2022-07-23T13:51:48;26.80;98.60
22337;DHT22;14992;50.844;4.418;2022-07-23T13:54:18;26.90;97.70
22337;DHT22;14992;50.844;4.418;2022-07-23T13:56:47;27.20;97.40
22337;DHT22;14992;50.844;4.418;2022-07-23T13:59:15;27.30;97.50
22337;DHT22;14992;50.844;4.418;2022-07-23T14:01:44;27.60;96.70
22337;DHT22;14992;50.844;4.418;2022-07-23T14:04:33;27.70;96.80
22337;DHT22;14992;50.844;4.418;2022-07-23T14:07:02;27.80;95.60
22337;DHT22;14992;50.844;4.418;2022-07-23T14:09:31;27.80;95.80
22337;DHT22;14992;50.844;4.418;2022-07-23T14:12:01;27.60;95.60
22337;DHT22;14992;50.844;4.418;2022-07-23T14:14:30;27.70;96.30
22337;DHT22;14992;50.844;4.418;2022-07-23T14:16:58;27.90;95.60
22337;DHT22;14992;50.844;4.418;2022-07-23T14:19:27;28.00;95.30
22337;DHT22;14992;50.844;4.418;2022-07-23T14:21:57;27.80;94.60
22337;DHT22;14992;50.844;4.418;2022-07-23T14:24:25;27.70;94.90
22337;DHT22;14992;50.844;4.418;2022-07-23T14:27:02;27.80;95.10
22337;DHT22;14992;50.844;4.418;2022-07-23T14:29:32;27.80;94.70
22337;DHT22;14992;50.844;4.418;2022-07-23T14:32:01;28.10;94.30
22337;DHT22;14992;50.844;4.418;2022-07-23T14:34:30;28.20;94.90
22337;DHT22;14992;50.844;4.418;2022-07-23T14:37:01;28.10;94.70
22337;DHT22;14992;50.844;4.418;2022-07-23T14:39:30;28.20;94.50
22337;DHT22;14992;50.844;4.418;2022-07-23T14:42:00;28.10;94.80
22337;DHT22;14992;50.844;4.418;2022-07-23T14:44:29;27.50;95.80
22337;DHT22;14992;50.844;4.418;2022-07-23T14:46:57;27.80;95.70
22337;DHT22;14992;50.844;4.418;2022-07-23T14:49:26;28.10;94.90
22337;DHT22;14992;50.844;4.418;2022-07-23T14:52:05;28.30;94.00
22337;DHT22;14992;50.844;4.418;2022-07-23T14:54:34;28.40;93.80
22337;DHT22;14992;50.844;4.418;2022-07-23T14:57:04;28.50;93.50
22337;DHT22;14992;50.844;4.418;2022-07-23T14:59:37;28.20;93.70
22337;DHT22;14992;50.844;4.418;2022-07-23T15:02:06;28.20;93.90
22337;DHT22;14992;50.844;4.418;2022-07-23T15:04:35;28.40;93.20
22337;DHT22;14992;50.844;4.418;2022-07-23T15:07:04;28.50;92.90
22337;DHT22;14992;50.844;4.418;2022-07-23T15:09:33;28.00;93.00
22337;DHT22;14992;50.844;4.418;2022-07-23T15:12:04;28.00;93.80
22337;DHT22;14992;50.844;4.418;2022-07-23T15:14:34;28.40;93.20
22337;DHT22;14992;50.844;4.418;2022-07-23T15:17:03;28.60;93.00
22337;DHT22;14992;50.844;4.418;2022-07-23T15:19:31;28.40;93.30
22337;DHT22;14992;50.844;4.418;2022-07-23T15:22:00;28.30;93.50
22337;DHT22;14992;50.844;4.418;2022-07-23T15:24:29;28.10;94.10
22337;DHT22;14992;50.844;4.418;2022-07-23T15:26:57;28.00;93.50
22337;DHT22;14992;50.844;4.418;2022-07-23T15:29:27;27.90;93.70
22337;DHT22;14992;50.844;4.418;2022-07-23T15:31:56;27.80;94.20
22337;DHT22;14992;50.844;4.418;2022-07-23T15:34:25;28.00;94.60
22337;DHT22;14992;50.844;4.418;2022-07-23T15:36:53;28.20;93.40
22337;DHT22;14992;50.844;4.418;2022-07-23T15:39:22;28.30;93.20
22337;DHT22;14992;50.844;4.418;2022-07-23T15:41:51;28.50;92.80
22337;DHT22;14992;50.844;4.418;2022-07-23T15:44:19;28.80;92.30
22337;DHT22;14992;50.844;4.418;2022-07-23T15:47:12;28.60;92.50
22337;DHT22;14992;50.844;4.418;2022-07-23T15:49:41;28.30;93.40
22337;DHT22;14992;50.844;4.418;2022-07-23T15:52:11;28.30;92.60
22337;DHT22;14992;50.844;4.418;2022-07-23T15:54:40;28.60;92.20
22337;DHT22;14992;50.844;4.418;2022-07-23T15:57:09;28.80;91.90